createdAt,value
2018-06-17T00:00:01.412Z,18.93
2018-06-17T00:01:01.436Z,18.93
2018-06-17T00:02:01.456Z,18.84
2018-06-17T00:03:01.483Z,18.84
2018-06-17T00:04:01.503Z,18.58
2018-06-17T00:05:01.528Z,18.60
2018-06-17T00:06:01.561Z,18.59
2018-06-17T00:07:01.572Z,18.53
2018-06-17T00:08:01.595Z,18.58
2018-06-17T00:09:01.620Z,18.43
2018-06-17T00:10:01.644Z,18.47
2018-06-17T00:11:01.668Z,18.41
2018-06-17T00:12:01.688Z,18.45
2018-06-17T00:13:01.711Z,18.41
2018-06-17T00:14:01.734Z,18.37
2018-06-17T00:15:01.760Z,18.38
2018-06-17T00:16:01.783Z,18.35
2018-06-17T00:17:01.804Z,18.28
2018-06-17T00:18:01.827Z,18.34
2018-06-17T00:19:01.850Z,18.37
2018-06-17T00:20:01.875Z,18.31
2018-06-17T00:21:01.896Z,18.28
2018-06-17T00:22:01.919Z,18.23
2018-06-17T00:23:01.946Z,18.18
2018-06-17T00:24:01.971Z,18.01
2018-06-17T00:25:01.992Z,18.08
2018-06-17T00:26:02.012Z,18.08
2018-06-17T00:27:02.039Z,18.03
2018-06-17T00:28:02.058Z,18.03
2018-06-17T00:29:02.087Z,18.03
2018-06-17T00:30:02.104Z,17.97
2018-06-17T00:31:02.129Z,17.90
2018-06-17T00:32:02.149Z,17.87
2018-06-17T00:33:02.174Z,17.82
2018-06-17T00:34:02.197Z,17.74
2018-06-17T00:35:02.222Z,17.78
2018-06-17T00:36:02.245Z,17.76
2018-06-17T00:37:02.267Z,17.78
2018-06-17T00:38:02.291Z,17.76
2018-06-17T00:39:02.313Z,17.76
2018-06-17T00:40:02.337Z,17.79
2018-06-17T00:41:02.359Z,17.78
2018-06-17T00:42:02.404Z,17.65
2018-06-17T00:43:02.406Z,17.72
2018-06-17T00:44:02.424Z,17.83
2018-06-17T00:45:02.453Z,17.76
2018-06-17T00:46:02.472Z,17.72
2018-06-17T00:47:02.496Z,17.70
2018-06-17T00:48:02.518Z,17.68
2018-06-17T00:49:02.542Z,17.67
2018-06-17T00:50:02.564Z,17.76
2018-06-17T00:51:02.586Z,17.60
2018-06-17T00:52:02.606Z,17.76
2018-06-17T00:53:02.630Z,17.78
2018-06-17T00:54:02.655Z,17.51
2018-06-17T00:55:02.676Z,17.51
2018-06-17T00:56:02.701Z,17.52
2018-06-17T00:57:02.721Z,17.52
2018-06-17T00:58:02.746Z,17.52
2018-06-17T00:59:02.766Z,17.51
2018-06-17T01:00:02.791Z,17.46
2018-06-17T01:01:02.814Z,17.44
2018-06-17T01:02:02.834Z,17.46
2018-06-17T01:03:02.857Z,17.36
2018-06-17T01:04:02.881Z,17.52
2018-06-17T01:05:02.904Z,17.49
2018-06-17T01:06:02.925Z,17.41
2018-06-17T01:07:02.950Z,17.42
2018-06-17T01:08:02.970Z,17.49
2018-06-17T01:09:02.996Z,17.46
2018-06-17T01:10:03.015Z,17.39
2018-06-17T01:11:03.040Z,17.39
2018-06-17T01:12:03.059Z,17.49
2018-06-17T01:13:03.084Z,17.46
2018-06-17T01:14:03.105Z,17.42
2018-06-17T01:15:03.128Z,17.49
2018-06-17T01:16:03.150Z,17.42
2018-06-17T01:17:03.175Z,17.33
2018-06-17T01:18:03.198Z,17.24
2018-06-17T01:19:03.218Z,17.33
2018-06-17T01:20:03.241Z,17.27
2018-06-17T01:21:03.263Z,17.24
2018-06-17T01:22:03.284Z,17.22
2018-06-17T01:23:03.310Z,17.19
2018-06-17T01:24:03.335Z,17.19
2018-06-17T01:25:03.355Z,17.15
2018-06-17T01:26:03.378Z,17.15
2018-06-17T01:27:03.401Z,17.12
2018-06-17T01:28:03.425Z,17.14
2018-06-17T01:29:03.444Z,17.08
2018-06-17T01:30:03.467Z,17.08
2018-06-17T01:31:03.490Z,17.06
2018-06-17T01:32:03.563Z,17.05
2018-06-17T01:33:03.534Z,17.09
2018-06-17T01:34:03.558Z,17.09
2018-06-17T01:35:03.577Z,17.08
2018-06-17T01:36:03.600Z,17.12
2018-06-17T01:37:03.622Z,16.99
2018-06-17T01:38:03.646Z,16.97
2018-06-17T01:39:03.665Z,16.94
2018-06-17T01:40:03.687Z,16.91
2018-06-17T01:41:03.710Z,16.93
2018-06-17T01:42:03.735Z,16.93
2018-06-17T01:43:03.764Z,16.91
2018-06-17T01:44:03.776Z,16.86
2018-06-17T01:45:03.801Z,16.83
2018-06-17T01:46:03.824Z,16.75
2018-06-17T01:47:03.848Z,16.78
2018-06-17T01:48:03.867Z,16.75
2018-06-17T01:49:03.891Z,16.60
2018-06-17T01:50:03.911Z,16.60
2018-06-17T01:51:03.934Z,16.58
2018-06-17T01:52:03.957Z,16.54
2018-06-17T01:53:03.976Z,16.56
2018-06-17T01:54:04.000Z,16.56
2018-06-17T01:55:04.021Z,16.64
2018-06-17T01:56:04.044Z,16.57
2018-06-17T01:57:04.064Z,16.51
2018-06-17T01:58:04.090Z,16.49
2018-06-17T01:59:04.111Z,16.50
2018-06-17T02:00:04.133Z,16.54
2018-06-17T02:01:04.155Z,16.61
2018-06-17T02:02:04.179Z,16.51
2018-06-17T02:03:04.200Z,16.49
2018-06-17T02:04:04.223Z,16.42
2018-06-17T02:05:04.246Z,16.53
2018-06-17T02:06:04.263Z,16.50
2018-06-17T02:07:04.284Z,16.47
2018-06-17T02:08:04.308Z,16.53
2018-06-17T02:09:04.328Z,16.41
2018-06-17T02:10:04.351Z,16.33
2018-06-17T02:11:04.374Z,16.47
2018-06-17T02:12:04.396Z,16.47
2018-06-17T02:13:04.416Z,16.51
2018-06-17T02:14:04.441Z,16.43
2018-06-17T02:15:04.460Z,16.43
2018-06-17T02:16:04.488Z,16.35
2018-06-17T02:17:04.503Z,16.35
2018-06-17T02:18:04.527Z,16.33
2018-06-17T02:19:04.548Z,16.36
2018-06-17T02:20:04.571Z,16.15
2018-06-17T02:21:04.593Z,16.31
2018-06-17T02:22:04.619Z,16.29
2018-06-17T02:23:04.636Z,16.24
2018-06-17T02:24:04.659Z,16.15
2018-06-17T02:25:04.680Z,16.28
2018-06-17T02:26:04.702Z,16.26
2018-06-17T02:27:04.723Z,16.26
2018-06-17T02:28:04.745Z,16.28
2018-06-17T02:29:04.766Z,16.16
2018-06-17T02:30:04.789Z,16.23
2018-06-17T02:31:04.811Z,16.09
2018-06-17T02:32:04.834Z,16.12
2018-06-17T02:33:04.854Z,16.09
2018-06-17T02:34:04.876Z,16.10
2018-06-17T02:35:04.896Z,16.10
2018-06-17T02:36:04.920Z,16.04
2018-06-17T02:37:04.941Z,16.09
2018-06-17T02:38:04.961Z,16.10
2018-06-17T02:39:04.986Z,16.12
2018-06-17T02:40:05.005Z,16.13
2018-06-17T02:41:05.029Z,16.12
2018-06-17T02:42:05.054Z,16.12
2018-06-17T02:43:05.073Z,16.13
2018-06-17T02:44:05.093Z,16.04
2018-06-17T02:45:05.112Z,16.15
2018-06-17T02:46:05.135Z,16.09
2018-06-17T02:47:05.157Z,16.10
2018-06-17T02:48:05.180Z,16.09
2018-06-17T02:49:05.200Z,16.08
2018-06-17T02:50:05.222Z,16.10
2018-06-17T02:51:05.259Z,16.13
2018-06-17T02:52:05.268Z,15.98
2018-06-17T02:53:05.288Z,15.97
2018-06-17T02:54:05.310Z,16.09
2018-06-17T02:55:05.331Z,16.09
2018-06-17T02:56:05.355Z,16.04
2018-06-17T02:57:05.373Z,16.13
2018-06-17T02:58:05.398Z,16.01
2018-06-17T02:59:05.417Z,16.12
2018-06-17T03:00:05.440Z,16.10
2018-06-17T03:01:05.462Z,16.12
2018-06-17T03:02:05.485Z,16.15
2018-06-17T03:03:05.506Z,16.00
2018-06-17T03:04:05.534Z,15.92
2018-06-17T03:05:05.548Z,15.83
2018-06-17T03:06:05.576Z,15.86
2018-06-17T03:07:05.591Z,15.80
2018-06-17T03:08:05.613Z,15.82
2018-06-17T03:09:05.633Z,15.88
2018-06-17T03:10:05.659Z,15.92
2018-06-17T03:11:05.676Z,15.77
2018-06-17T03:12:05.698Z,15.83
2018-06-17T03:13:05.725Z,15.76
2018-06-17T03:14:05.742Z,15.68
2018-06-17T03:15:05.765Z,15.80
2018-06-17T03:16:05.790Z,15.76
2018-06-17T03:17:05.808Z,15.73
2018-06-17T03:18:05.832Z,15.70
2018-06-17T03:19:05.853Z,15.65
2018-06-17T03:20:05.870Z,15.67
2018-06-17T03:21:05.895Z,15.58
2018-06-17T03:22:05.917Z,15.59
2018-06-17T03:23:05.939Z,15.58
2018-06-17T03:24:05.957Z,15.65
2018-06-17T03:25:05.981Z,15.51
2018-06-17T03:26:06.000Z,15.51
2018-06-17T03:27:06.026Z,15.55
2018-06-17T03:28:06.044Z,15.51
2018-06-17T03:29:06.066Z,15.54
2018-06-17T03:30:06.087Z,15.54
2018-06-17T03:31:06.108Z,15.55
2018-06-17T03:32:06.129Z,15.58
2018-06-17T03:33:06.151Z,15.51
2018-06-17T03:34:06.175Z,15.58
2018-06-17T03:35:06.194Z,15.64
2018-06-17T03:36:06.214Z,15.72
2018-06-17T03:37:06.236Z,15.68
2018-06-17T03:38:06.257Z,15.75
2018-06-17T03:39:06.283Z,15.67
2018-06-17T03:40:06.300Z,15.70
2018-06-17T03:41:06.322Z,15.65
2018-06-17T03:42:06.343Z,15.75
2018-06-17T03:43:06.369Z,15.68
2018-06-17T03:44:06.386Z,15.72
2018-06-17T03:45:06.410Z,15.79
2018-06-17T03:46:06.429Z,15.86
2018-06-17T03:47:06.451Z,15.84
2018-06-17T03:48:06.475Z,15.94
2018-06-17T03:49:06.494Z,15.90
2018-06-17T03:50:06.516Z,15.86
2018-06-17T03:51:06.545Z,15.95
2018-06-17T03:52:06.560Z,15.95
2018-06-17T03:53:06.583Z,15.98
2018-06-17T03:54:06.602Z,16.01
2018-06-17T03:55:06.625Z,16.08
2018-06-17T03:56:06.644Z,16.04
2018-06-17T03:57:06.669Z,15.95
2018-06-17T03:58:06.689Z,16.01
2018-06-17T03:59:06.713Z,16.10
2018-06-17T04:00:06.734Z,16.16
2018-06-17T04:01:06.752Z,16.21
2018-06-17T04:02:06.779Z,16.23
2018-06-17T04:03:06.798Z,16.29
2018-06-17T04:04:06.827Z,16.26
2018-06-17T04:05:06.844Z,16.21
2018-06-17T04:06:06.863Z,16.32
2018-06-17T04:07:06.884Z,16.32
2018-06-17T04:08:06.904Z,16.28
2018-06-17T04:09:06.928Z,16.31
2018-06-17T04:10:06.948Z,16.35
2018-06-17T04:11:06.973Z,16.32
2018-06-17T04:12:06.995Z,16.39
2018-06-17T04:13:07.012Z,16.36
2018-06-17T04:14:07.035Z,16.31
2018-06-17T04:15:07.059Z,16.32
2018-06-17T04:16:07.082Z,16.41
2018-06-17T04:17:07.102Z,16.35
2018-06-17T04:18:07.125Z,16.26
2018-06-17T04:19:07.146Z,16.41
2018-06-17T04:20:07.165Z,16.43
2018-06-17T04:21:07.187Z,16.51
2018-06-17T04:22:07.209Z,16.47
2018-06-17T04:23:07.234Z,16.50
2018-06-17T04:24:07.255Z,16.46
2018-06-17T04:25:07.277Z,16.53
2018-06-17T04:26:07.300Z,16.50
2018-06-17T04:27:07.327Z,16.60
2018-06-17T04:28:07.339Z,16.61
2018-06-17T04:29:07.362Z,16.49
2018-06-17T04:30:07.385Z,16.64
2018-06-17T04:31:07.410Z,16.54
2018-06-17T04:32:07.429Z,16.46
2018-06-17T04:33:07.449Z,16.50
2018-06-17T04:34:07.473Z,16.51
2018-06-17T04:35:07.495Z,16.69
2018-06-17T04:36:07.515Z,16.68
2018-06-17T04:37:07.538Z,16.66
2018-06-17T04:38:07.562Z,16.60
2018-06-17T04:39:07.581Z,16.56
2018-06-17T04:40:07.604Z,16.54
2018-06-17T04:41:07.628Z,16.49
2018-06-17T04:42:07.647Z,16.60
2018-06-17T04:43:07.674Z,16.58
2018-06-17T04:44:07.690Z,16.51
2018-06-17T04:45:07.718Z,16.53
2018-06-17T04:46:07.741Z,16.51
2018-06-17T04:47:07.763Z,16.64
2018-06-17T04:48:07.779Z,16.54
2018-06-17T04:49:07.803Z,16.60
2018-06-17T04:50:07.824Z,16.50
2018-06-17T04:51:07.848Z,16.43
2018-06-17T04:52:07.869Z,16.47
2018-06-17T04:53:07.893Z,16.36
2018-06-17T04:54:07.915Z,16.46
2018-06-17T04:55:07.937Z,16.41
2018-06-17T04:56:07.957Z,16.41
2018-06-17T04:57:07.979Z,16.35
2018-06-17T04:58:08.003Z,16.33
2018-06-17T04:59:08.022Z,16.33
2018-06-17T05:00:08.046Z,16.31
2018-06-17T05:01:08.067Z,16.32
2018-06-17T05:02:08.090Z,16.46
2018-06-17T05:03:08.113Z,16.47
2018-06-17T05:04:08.133Z,16.49
2018-06-17T05:05:08.156Z,16.53
2018-06-17T05:06:08.179Z,16.54
2018-06-17T05:07:08.199Z,16.53
2018-06-17T05:08:08.222Z,16.42
2018-06-17T05:09:08.244Z,16.49
2018-06-17T05:10:08.265Z,16.47
2018-06-17T05:11:08.287Z,16.60
2018-06-17T05:12:08.306Z,16.51
2018-06-17T05:13:08.330Z,16.60
2018-06-17T05:14:08.353Z,16.68
2018-06-17T05:15:08.372Z,16.72
2018-06-17T05:16:08.393Z,16.76
2018-06-17T05:17:08.422Z,16.83
2018-06-17T05:18:08.440Z,16.83
2018-06-17T05:19:08.464Z,16.84
2018-06-17T05:20:08.482Z,16.84
2018-06-17T05:21:08.506Z,16.90
2018-06-17T05:22:08.526Z,16.97
2018-06-17T05:23:08.550Z,16.94
2018-06-17T05:24:08.572Z,17.01
2018-06-17T05:25:08.594Z,17.08
2018-06-17T05:26:08.613Z,17.05
2018-06-17T05:27:08.636Z,17.16
2018-06-17T05:28:08.708Z,17.14
2018-06-17T05:29:08.679Z,17.20
2018-06-17T05:30:08.705Z,17.20
2018-06-17T05:31:08.726Z,17.27
2018-06-17T05:32:08.747Z,17.22
2018-06-17T05:33:08.770Z,17.16
2018-06-17T05:34:08.792Z,17.23
2018-06-17T05:35:08.812Z,17.26
2018-06-17T05:36:08.836Z,17.27
2018-06-17T05:37:08.856Z,17.39
2018-06-17T05:38:08.883Z,17.38
2018-06-17T05:39:08.903Z,17.23
2018-06-17T05:40:08.931Z,17.44
2018-06-17T05:41:08.947Z,17.49
2018-06-17T05:42:08.967Z,17.52
2018-06-17T05:43:08.990Z,17.59
2018-06-17T05:44:09.012Z,17.67
2018-06-17T05:45:09.037Z,17.74
2018-06-17T05:46:09.058Z,17.79
2018-06-17T05:47:09.082Z,17.74
2018-06-17T05:48:09.103Z,17.94
2018-06-17T05:49:09.125Z,18.05
2018-06-17T05:50:09.148Z,18.23
2018-06-17T05:51:09.173Z,18.43
2018-06-17T05:52:09.191Z,18.47
2018-06-17T05:53:09.215Z,18.52
2018-06-17T05:54:09.240Z,18.41
2018-06-17T05:55:09.262Z,18.41
2018-06-17T05:56:09.286Z,18.31
2018-06-17T05:57:09.306Z,18.43
2018-06-17T05:58:09.329Z,18.38
2018-06-17T05:59:09.355Z,18.37
2018-06-17T06:00:09.376Z,18.47
2018-06-17T06:01:09.400Z,18.66
2018-06-17T06:02:09.427Z,18.56
2018-06-17T06:03:09.450Z,18.52
2018-06-17T06:04:09.476Z,18.55
2018-06-17T06:05:09.498Z,18.73
2018-06-17T06:06:09.519Z,18.88
2018-06-17T06:07:09.546Z,18.98
2018-06-17T06:08:09.569Z,18.99
2018-06-17T06:09:09.593Z,18.70
2018-06-17T06:10:09.616Z,18.88
2018-06-17T06:11:09.644Z,18.66
2018-06-17T06:12:09.715Z,18.63
2018-06-17T06:13:09.692Z,18.56
2018-06-17T06:14:09.717Z,18.59
2018-06-17T06:15:09.742Z,18.59
2018-06-17T06:16:09.763Z,18.75
2018-06-17T06:17:09.787Z,18.66
2018-06-17T06:18:09.815Z,18.70
2018-06-17T06:19:09.837Z,18.80
2018-06-17T06:20:09.865Z,19.04
2018-06-17T06:21:09.887Z,19.16
2018-06-17T06:22:09.914Z,19.26
2018-06-17T06:23:09.938Z,19.14
2018-06-17T06:24:09.963Z,19.26
2018-06-17T06:25:09.986Z,19.47
2018-06-17T06:26:10.014Z,19.41
2018-06-17T06:27:10.040Z,19.39
2018-06-17T06:28:10.065Z,19.26
2018-06-17T06:29:10.090Z,19.37
2018-06-17T06:30:10.115Z,19.41
2018-06-17T06:31:10.138Z,19.48
2018-06-17T06:32:10.163Z,19.52
2018-06-17T06:33:10.192Z,19.56
2018-06-17T06:34:10.217Z,19.48
2018-06-17T06:35:10.240Z,19.49
2018-06-17T06:36:10.267Z,19.67
2018-06-17T06:37:10.301Z,19.79
2018-06-17T06:38:10.317Z,19.82
2018-06-17T06:39:10.342Z,19.73
2018-06-17T06:40:10.372Z,19.76
2018-06-17T06:41:10.396Z,19.73
2018-06-17T06:42:10.418Z,19.82
2018-06-17T06:43:10.448Z,19.76
2018-06-17T06:44:10.472Z,19.73
2018-06-17T06:45:10.496Z,19.96
2018-06-17T06:46:10.521Z,19.89
2018-06-17T06:47:10.548Z,19.73
2018-06-17T06:48:10.574Z,19.58
2018-06-17T06:49:10.604Z,19.73
2018-06-17T06:50:10.631Z,19.79
2018-06-17T06:51:10.817Z,19.82
2018-06-17T06:52:10.677Z,19.82
2018-06-17T06:53:10.703Z,19.92
2018-06-17T06:54:10.729Z,19.94
2018-06-17T06:55:10.756Z,20.04
2018-06-17T06:56:10.785Z,20.16
2018-06-17T06:57:10.809Z,20.07
2018-06-17T06:58:10.833Z,20.25
2018-06-17T06:59:10.861Z,19.81
2018-06-17T07:00:10.884Z,19.63
2018-06-17T07:01:10.916Z,19.55
2018-06-17T07:02:10.940Z,19.48
2018-06-17T07:03:10.964Z,19.74
2018-06-17T07:04:10.989Z,19.86
2018-06-17T07:05:11.016Z,20.02
2018-06-17T07:06:11.045Z,20.13
2018-06-17T07:07:11.071Z,20.10
2018-06-17T07:08:11.093Z,20.24
2018-06-17T07:09:11.125Z,20.24
2018-06-17T07:10:11.152Z,20.31
2018-06-17T07:11:11.172Z,20.41
2018-06-17T07:12:11.204Z,20.52
2018-06-17T07:13:11.227Z,20.67
2018-06-17T07:14:11.253Z,20.63
2018-06-17T07:15:11.277Z,20.62
2018-06-17T07:16:11.303Z,20.75
2018-06-17T07:17:11.333Z,20.65
2018-06-17T07:18:11.358Z,20.48
2018-06-17T07:19:11.385Z,20.39
2018-06-17T07:20:11.411Z,20.37
2018-06-17T07:21:11.437Z,20.36
2018-06-17T07:22:11.465Z,20.39
2018-06-17T07:23:11.490Z,20.41
2018-06-17T07:24:11.517Z,20.44
2018-06-17T07:25:11.541Z,20.55
2018-06-17T07:26:11.568Z,20.50
2018-06-17T07:27:11.595Z,20.59
2018-06-17T07:28:11.623Z,20.58
2018-06-17T07:29:11.647Z,20.34
2018-06-17T07:30:11.678Z,20.40
2018-06-17T07:31:11.701Z,20.41
2018-06-17T07:32:11.730Z,20.52
2018-06-17T07:33:11.759Z,20.77
2018-06-17T07:34:11.783Z,20.65
2018-06-17T07:35:11.809Z,20.63
2018-06-17T07:36:11.835Z,20.50
2018-06-17T07:37:11.859Z,20.10
2018-06-17T07:38:11.886Z,20.10
2018-06-17T07:39:11.913Z,20.04
2018-06-17T07:40:11.938Z,20.11
2018-06-17T07:41:11.966Z,20.40
2018-06-17T07:42:11.994Z,20.36
2018-06-17T07:43:12.018Z,20.40
2018-06-17T07:44:12.043Z,20.58
2018-06-17T07:45:12.069Z,20.67
2018-06-17T07:46:12.098Z,20.51
2018-06-17T07:47:12.124Z,20.37
2018-06-17T07:48:12.150Z,20.43
2018-06-17T07:49:12.177Z,20.22
2018-06-17T07:50:12.207Z,20.06
2018-06-17T07:51:12.227Z,19.70
2018-06-17T07:52:12.251Z,19.81
2018-06-17T07:53:12.279Z,19.82
2018-06-17T07:54:12.308Z,19.74
2018-06-17T07:55:12.335Z,19.81
2018-06-17T07:56:12.359Z,20.00
2018-06-17T07:57:12.391Z,20.09
2018-06-17T07:58:12.403Z,20.13
2018-06-17T07:59:12.433Z,20.22
2018-06-17T08:00:12.457Z,20.24
2018-06-17T08:01:12.481Z,20.32
2018-06-17T08:02:12.506Z,20.52
2018-06-17T08:03:12.532Z,20.31
2018-06-17T08:04:12.562Z,20.07
2018-06-17T08:05:12.585Z,19.99
2018-06-17T08:06:12.607Z,19.81
2018-06-17T08:07:12.637Z,19.58
2018-06-17T08:08:12.660Z,19.56
2018-06-17T08:09:12.685Z,19.70
2018-06-17T08:10:12.709Z,19.86
2018-06-17T08:11:12.733Z,19.91
2018-06-17T08:12:12.759Z,20.32
2018-06-17T08:13:12.782Z,20.70
2018-06-17T08:14:12.810Z,20.95
2018-06-17T08:15:12.832Z,21.02
2018-06-17T08:16:12.860Z,21.11
2018-06-17T08:17:12.882Z,20.87
2018-06-17T08:18:12.907Z,20.62
2018-06-17T08:19:12.935Z,20.48
2018-06-17T08:20:12.993Z,20.48
2018-06-17T08:21:12.985Z,20.63
2018-06-17T08:22:13.007Z,20.87
2018-06-17T08:23:13.036Z,21.05
2018-06-17T08:24:13.060Z,21.07
2018-06-17T08:25:13.084Z,21.00
2018-06-17T08:26:13.110Z,21.07
2018-06-17T08:27:13.136Z,21.07
2018-06-17T08:28:13.157Z,21.07
2018-06-17T08:29:13.184Z,20.92
2018-06-17T08:30:13.209Z,21.06
2018-06-17T08:31:13.236Z,21.06
2018-06-17T08:32:13.258Z,21.07
2018-06-17T08:33:13.294Z,21.11
2018-06-17T08:34:13.311Z,21.03
2018-06-17T08:35:13.337Z,21.00
2018-06-17T08:36:13.363Z,20.85
2018-06-17T08:37:13.386Z,20.75
2018-06-17T08:38:13.414Z,20.63
2018-06-17T08:39:13.443Z,20.66
2018-06-17T08:40:13.464Z,20.59
2018-06-17T08:41:13.488Z,20.37
2018-06-17T08:42:13.513Z,20.28
2018-06-17T08:43:13.568Z,20.24
2018-06-17T08:44:13.567Z,20.21
2018-06-17T08:45:13.592Z,20.22
2018-06-17T08:46:13.615Z,20.31
2018-06-17T08:47:13.642Z,20.63
2018-06-17T08:48:13.665Z,20.51
2018-06-17T08:49:13.693Z,20.40
2018-06-17T08:50:13.716Z,20.52
2018-06-17T08:51:13.742Z,20.52
2018-06-17T08:52:13.765Z,20.56
2018-06-17T08:53:13.796Z,20.67
2018-06-17T08:54:13.873Z,20.78
2018-06-17T08:55:13.844Z,20.66
2018-06-17T08:56:13.867Z,20.56
2018-06-17T08:57:13.948Z,20.55
2018-06-17T08:58:13.917Z,20.34
2018-06-17T08:59:13.948Z,20.37
2018-06-17T09:00:14.032Z,20.40
2018-06-17T09:01:13.995Z,20.32
2018-06-17T09:02:14.021Z,20.44
2018-06-17T09:03:14.046Z,20.56
2018-06-17T09:04:14.076Z,20.67
2018-06-17T09:05:14.097Z,20.60
2018-06-17T09:06:14.123Z,20.67
2018-06-17T09:07:14.144Z,20.69
2018-06-17T09:08:14.170Z,20.85
2018-06-17T09:09:14.192Z,20.67
2018-06-17T09:10:14.220Z,20.66
2018-06-17T09:11:14.246Z,20.80
2018-06-17T09:12:14.270Z,20.87
2018-06-17T09:13:14.293Z,20.93
2018-06-17T09:14:14.321Z,20.58
2018-06-17T09:15:14.343Z,20.47
2018-06-17T09:16:14.392Z,20.51
2018-06-17T09:17:14.393Z,20.47
2018-06-17T09:18:14.419Z,20.66
2018-06-17T09:19:14.526Z,20.59
2018-06-17T09:20:14.471Z,20.56
2018-06-17T09:21:14.494Z,20.63
2018-06-17T09:22:14.522Z,20.69
2018-06-17T09:23:14.547Z,20.81
2018-06-17T09:24:14.570Z,20.85
2018-06-17T09:25:14.630Z,20.81
2018-06-17T09:26:14.620Z,20.82
2018-06-17T09:27:14.648Z,20.66
2018-06-17T09:28:14.671Z,20.50
2018-06-17T09:29:14.698Z,20.52
2018-06-17T09:30:14.721Z,20.59
2018-06-17T09:31:14.749Z,20.60
2018-06-17T09:32:14.830Z,20.60
2018-06-17T09:33:14.796Z,20.52
2018-06-17T09:34:14.823Z,20.50
2018-06-17T09:35:14.847Z,20.62
2018-06-17T09:36:14.870Z,20.55
2018-06-17T09:37:14.896Z,20.63
2018-06-17T09:38:14.921Z,20.63
2018-06-17T09:39:14.947Z,20.63
2018-06-17T09:40:14.974Z,20.75
2018-06-17T09:41:14.997Z,20.62
2018-06-17T09:42:15.023Z,20.58
2018-06-17T09:43:15.051Z,20.34
2018-06-17T09:44:15.112Z,20.13
2018-06-17T09:45:15.097Z,20.21
2018-06-17T09:46:15.126Z,20.19
2018-06-17T09:47:15.148Z,20.34
2018-06-17T09:48:15.172Z,20.36
2018-06-17T09:49:15.199Z,20.60
2018-06-17T09:50:15.224Z,20.65
2018-06-17T09:51:15.251Z,20.78
2018-06-17T09:52:15.272Z,20.84
2018-06-17T09:53:15.300Z,20.80
2018-06-17T09:54:15.322Z,20.81
2018-06-17T09:55:15.350Z,20.67
2018-06-17T09:56:15.375Z,20.65
2018-06-17T09:57:15.398Z,20.80
2018-06-17T09:58:15.423Z,20.96
2018-06-17T09:59:15.453Z,20.95
2018-06-17T10:00:15.476Z,21.06
2018-06-17T10:01:15.501Z,20.96
2018-06-17T10:02:15.524Z,21.05
2018-06-17T10:03:15.553Z,21.05
2018-06-17T10:04:15.574Z,20.82
2018-06-17T10:05:15.599Z,20.82
2018-06-17T10:06:15.630Z,20.77
2018-06-17T10:07:15.653Z,20.63
2018-06-17T10:08:15.676Z,20.78
2018-06-17T10:09:15.704Z,20.78
2018-06-17T10:10:15.726Z,20.74
2018-06-17T10:11:15.751Z,20.95
2018-06-17T10:12:15.780Z,21.03
2018-06-17T10:13:15.802Z,21.09
2018-06-17T10:14:15.828Z,20.59
2018-06-17T10:15:15.853Z,20.66
2018-06-17T10:16:15.878Z,20.81
2018-06-17T10:17:15.904Z,20.82
2018-06-17T10:18:15.929Z,20.84
2018-06-17T10:19:15.958Z,20.78
2018-06-17T10:20:15.982Z,20.85
2018-06-17T10:21:16.021Z,20.81
2018-06-17T10:22:16.035Z,20.81
2018-06-17T10:23:16.058Z,20.78
2018-06-17T10:24:16.083Z,20.84
2018-06-17T10:25:16.106Z,20.93
2018-06-17T10:26:16.131Z,21.02
2018-06-17T10:27:16.160Z,21.05
2018-06-17T10:28:16.184Z,21.20
2018-06-17T10:29:16.213Z,21.21
2018-06-17T10:30:16.232Z,21.17
2018-06-17T10:31:16.260Z,21.22
2018-06-17T10:32:16.285Z,21.39
2018-06-17T10:33:16.308Z,21.42
2018-06-17T10:34:16.333Z,20.99
2018-06-17T10:35:16.359Z,20.90
2018-06-17T10:36:16.383Z,20.90
2018-06-17T10:37:16.409Z,20.97
2018-06-17T10:38:16.439Z,21.09
2018-06-17T10:39:16.463Z,21.18
2018-06-17T10:40:16.486Z,21.36
2018-06-17T10:41:16.514Z,21.32
2018-06-17T10:42:16.544Z,21.21
2018-06-17T10:43:16.562Z,21.15
2018-06-17T10:44:16.638Z,21.17
2018-06-17T10:45:16.614Z,21.30
2018-06-17T10:46:16.638Z,21.43
2018-06-17T10:47:16.664Z,21.40
2018-06-17T10:48:16.689Z,21.58
2018-06-17T10:49:16.714Z,21.52
2018-06-17T10:50:16.740Z,21.70
2018-06-17T10:51:16.766Z,21.70
2018-06-17T10:52:16.794Z,21.82
2018-06-17T10:53:16.820Z,21.92
2018-06-17T10:54:16.843Z,21.79
2018-06-17T10:55:16.872Z,21.64
2018-06-17T10:56:16.967Z,21.39
2018-06-17T10:57:16.923Z,21.30
2018-06-17T10:58:16.948Z,21.39
2018-06-17T10:59:16.973Z,21.22
2018-06-17T11:00:17.200Z,21.22
2018-06-17T11:01:17.049Z,21.36
2018-06-17T11:02:17.053Z,21.29
2018-06-17T11:03:17.077Z,21.62
2018-06-17T11:04:17.099Z,21.69
2018-06-17T11:05:17.251Z,21.43
2018-06-17T11:06:17.152Z,21.37
2018-06-17T11:07:17.181Z,21.29
2018-06-17T11:08:17.212Z,21.24
2018-06-17T11:09:17.229Z,21.27
2018-06-17T11:10:17.258Z,21.37
2018-06-17T11:11:17.282Z,21.43
2018-06-17T11:12:17.306Z,21.45
2018-06-17T11:13:17.380Z,21.46
2018-06-17T11:14:17.360Z,21.69
2018-06-17T11:15:17.384Z,21.88
2018-06-17T11:16:17.412Z,21.51
2018-06-17T11:17:17.439Z,21.11
2018-06-17T11:18:17.464Z,21.02
2018-06-17T11:19:17.491Z,21.11
2018-06-17T11:20:17.515Z,21.15
2018-06-17T11:21:17.538Z,21.15
2018-06-17T11:22:17.570Z,21.09
2018-06-17T11:23:17.594Z,21.06
2018-06-17T11:24:17.619Z,21.14
2018-06-17T11:25:17.643Z,21.18
2018-06-17T11:26:17.668Z,21.24
2018-06-17T11:27:17.696Z,21.07
2018-06-17T11:28:17.724Z,21.07
2018-06-17T11:29:17.744Z,21.17
2018-06-17T11:30:17.772Z,21.17
2018-06-17T11:31:17.798Z,21.17
2018-06-17T11:32:17.824Z,20.95
2018-06-17T11:33:17.847Z,20.85
2018-06-17T11:34:17.875Z,20.65
2018-06-17T11:35:17.899Z,20.47
2018-06-17T11:36:17.924Z,20.40
2018-06-17T11:37:17.953Z,20.36
2018-06-17T11:38:17.978Z,20.34
2018-06-17T11:39:18.005Z,20.65
2018-06-17T11:40:18.029Z,20.66
2018-06-17T11:41:18.054Z,20.50
2018-06-17T11:42:18.080Z,20.47
2018-06-17T11:43:18.104Z,20.62
2018-06-17T11:44:18.128Z,20.51
2018-06-17T11:45:18.152Z,20.67
2018-06-17T11:46:18.178Z,20.63
2018-06-17T11:47:18.205Z,20.78
2018-06-17T11:48:18.228Z,20.84
2018-06-17T11:49:18.252Z,20.80
2018-06-17T11:50:18.280Z,20.78
2018-06-17T11:51:18.309Z,20.65
2018-06-17T11:52:18.328Z,20.63
2018-06-17T11:53:18.354Z,20.48
2018-06-17T11:54:18.381Z,20.37
2018-06-17T11:55:18.408Z,20.16
2018-06-17T11:56:18.429Z,20.14
2018-06-17T11:57:18.455Z,20.26
2018-06-17T11:58:18.478Z,20.37
2018-06-17T11:59:18.503Z,20.50
2018-06-17T12:00:18.527Z,20.78
2018-06-17T12:01:18.554Z,20.72
2018-06-17T12:02:18.584Z,20.80
2018-06-17T12:03:18.607Z,20.81
2018-06-17T12:04:18.627Z,21.05
2018-06-17T12:05:18.655Z,20.97
2018-06-17T12:06:18.678Z,21.03
2018-06-17T12:07:18.705Z,20.75
2018-06-17T12:08:18.729Z,20.74
2018-06-17T12:09:18.752Z,21.03
2018-06-17T12:10:18.778Z,21.30
2018-06-17T12:11:18.805Z,21.27
2018-06-17T12:12:18.829Z,20.88
2018-06-17T12:13:18.855Z,21.06
2018-06-17T12:14:18.879Z,21.18
2018-06-17T12:15:18.906Z,21.40
2018-06-17T12:16:18.929Z,21.64
2018-06-17T12:17:18.955Z,21.73
2018-06-17T12:18:18.979Z,21.39
2018-06-17T12:19:19.004Z,21.33
2018-06-17T12:20:19.031Z,21.25
2018-06-17T12:21:19.055Z,21.15
2018-06-17T12:22:19.080Z,21.32
2018-06-17T12:23:19.105Z,21.32
2018-06-17T12:24:19.132Z,21.18
2018-06-17T12:25:19.192Z,20.96
2018-06-17T12:26:19.187Z,20.82
2018-06-17T12:27:19.207Z,21.09
2018-06-17T12:28:19.235Z,21.12
2018-06-17T12:29:19.262Z,21.39
2018-06-17T12:30:19.284Z,21.42
2018-06-17T12:31:19.309Z,21.64
2018-06-17T12:32:19.338Z,21.51
2018-06-17T12:33:19.360Z,21.25
2018-06-17T12:34:19.386Z,21.45
2018-06-17T12:35:19.415Z,21.43
2018-06-17T12:36:19.439Z,21.46
2018-06-17T12:37:19.464Z,21.69
2018-06-17T12:38:19.490Z,21.64
2018-06-17T12:39:19.519Z,21.83
2018-06-17T12:40:19.539Z,22.06
2018-06-17T12:41:19.565Z,21.82
2018-06-17T12:42:19.594Z,21.92
2018-06-17T12:43:19.616Z,21.83
2018-06-17T12:44:19.641Z,21.42
2018-06-17T12:45:19.670Z,21.57
2018-06-17T12:46:19.693Z,21.58
2018-06-17T12:47:19.725Z,21.58
2018-06-17T12:48:19.744Z,21.85
2018-06-17T12:49:19.773Z,21.85
2018-06-17T12:50:19.799Z,21.43
2018-06-17T12:51:19.827Z,21.51
2018-06-17T12:52:19.847Z,21.60